Impacts TAF Board
For situational awareness. Not to be used for flight planning purposes.
IDs:

KFLL - Ft Lauderdale-Hollyw, FL, US

Issued at 2048 UTC 30 Jun 2022
Updated at 2218 UTC 30 Jun 2022
Potential Impact None Slight Moderate High
Time2153Z 30/23Z 01/00Z 01/01Z 01/02Z 01/03Z 01/04Z 01/05Z 01/06Z 01/07Z 01/08Z 01/09Z 01/10Z 01/11Z>>
Type OBS PRVL PRVL PRVL PRVL PRVL PRVL PRVL PRVL PRVL PRVL PRVL PRVL PRVL
VIS 10 >6 >6 >6 >6 >6 >6 >6 >6 >6 >6 >6 >6 >6
CIG 250 60 60 60 60 60 60 60 60 60 60 60 60 60
Cover BKN BKN BKN BKN BKN BKN BKN BKN BKN BKN BKN BKN BKN BKN
FltCat VFR VFR VFR VFR VFR VFR VFR VFR VFR VFR VFR VFR VFR VFR
WX -- -- -- -- -- -- -- -- -- -- VCSH VCSH VCSH VCSH
WDir 140 120 120 120 120 120 120 120 120 120 VRB VRB VRB VRB
WSpd 12 8 8 8 8 8 8 8 8 8 4 4 4 4
WGst -- -- -- -- -- -- -- -- -- -- -- -- -- --
WSHgt -- -- -- -- -- -- -- -- -- -- -- -- -- --
WSDir -- -- -- -- -- -- -- -- -- -- -- -- -- --
WSSpd -- -- -- -- -- -- -- -- -- -- -- -- -- --
Raw TAF
KFLL 302048Z 3021/0124 13013KT P6SM VCTS SCT030CB BKN050
  FM302300 12008KT P6SM SCT030 BKN060
  FM010800 VRB04KT P6SM VCSH SCT030 BKN060
  FM011400 11012KT P6SM VCSH SCT025 BKN060
  PROB30 0115/0121 6SM TSRA BKN025CB


Raw METAR
KFLL 302153Z 14012KT 10SM FEW030 SCT075 SCT150 BKN250 31/24 A3009 RMK CB DSNT ALQDS MOV NW T03120244
KFLL 302053Z 13013KT 10SM SCT030 BKN075 BKN250 32/25 A3010 RMK CB DSNT SW-NW MOV NW T03150252
KFLL 301953Z COR 14014KT 10SM FEW030 SCT080 BKN250 32/25 A3009 RMK CB DSNT SW MOV NW TCU DSNT SE MDT CU DSNT W AND NW T03180254

METAR Board
Radar Display
Forecast Discussion
For situational awareness. Not to be used for flight planning purposes.